sensor_id;sensor_type;location;lat;lon;timestamp;P1;durP1;ratioP1;P2;durP2;ratioP2
34497;SDS011;20744;50.938;7.286;2023-06-10T00:00:18;8.93;;;5.68;;
34497;SDS011;20744;50.938;7.286;2023-06-10T00:02:46;9.70;;;6.22;;
34497;SDS011;20744;50.938;7.286;2023-06-10T00:05:13;8.73;;;5.85;;
34497;SDS011;20744;50.938;7.286;2023-06-10T00:07:41;15.32;;;5.82;;
34497;SDS011;20744;50.938;7.286;2023-06-10T00:10:08;8.00;;;5.85;;
34497;SDS011;20744;50.938;7.286;2023-06-10T00:12:36;9.48;;;5.95;;
34497;SDS011;20744;50.938;7.286;2023-06-10T00:15:05;7.22;;;5.80;;
34497;SDS011;20744;50.938;7.286;2023-06-10T00:17:33;9.82;;;5.65;;
34497;SDS011;20744;50.938;7.286;2023-06-10T00:20:04;7.30;;;5.82;;
34497;SDS011;20744;50.938;7.286;2023-06-10T00:22:34;10.27;;;5.88;;
34497;SDS011;20744;50.938;7.286;2023-06-10T00:25:01;7.57;;;5.63;;
34497;SDS011;20744;50.938;7.286;2023-06-10T00:27:29;6.60;;;5.60;;
34497;SDS011;20744;50.938;7.286;2023-06-10T00:30:00;13.65;;;6.53;;
34497;SDS011;20744;50.938;7.286;2023-06-10T00:32:28;10.02;;;5.40;;
34497;SDS011;20744;50.938;7.286;2023-06-10T00:34:55;8.98;;;5.88;;
34497;SDS011;20744;50.938;7.286;2023-06-10T00:37:23;10.45;;;6.10;;
34497;SDS011;20744;50.938;7.286;2023-06-10T00:39:50;7.78;;;5.35;;
34497;SDS011;20744;50.938;7.286;2023-06-10T00:42:17;9.18;;;5.90;;
34497;SDS011;20744;50.938;7.286;2023-06-10T00:44:44;9.48;;;5.22;;
34497;SDS011;20744;50.938;7.286;2023-06-10T00:47:11;12.20;;;6.18;;
34497;SDS011;20744;50.938;7.286;2023-06-10T00:49:40;9.73;;;6.10;;
34497;SDS011;20744;50.938;7.286;2023-06-10T00:52:08;9.38;;;5.68;;
34497;SDS011;20744;50.938;7.286;2023-06-10T00:54:36;8.82;;;6.03;;
34497;SDS011;20744;50.938;7.286;2023-06-10T00:57:04;7.80;;;6.00;;
34497;SDS011;20744;50.938;7.286;2023-06-10T00:59:31;9.23;;;5.88;;
34497;SDS011;20744;50.938;7.286;2023-06-10T01:01:59;6.50;;;5.50;;
34497;SDS011;20744;50.938;7.286;2023-06-10T01:04:27;8.93;;;5.82;;
34497;SDS011;20744;50.938;7.286;2023-06-10T01:06:57;11.35;;;5.68;;
34497;SDS011;20744;50.938;7.286;2023-06-10T01:09:28;7.50;;;5.78;;
34497;SDS011;20744;50.938;7.286;2023-06-10T01:11:58;7.95;;;5.85;;
34497;SDS011;20744;50.938;7.286;2023-06-10T01:14:29;10.88;;;5.95;;
34497;SDS011;20744;50.938;7.286;2023-06-10T01:16:57;13.13;;;6.18;;
34497;SDS011;20744;50.938;7.286;2023-06-10T01:19:26;9.73;;;6.13;;
34497;SDS011;20744;50.938;7.286;2023-06-10T01:21:54;7.72;;;6.43;;
34497;SDS011;20744;50.938;7.286;2023-06-10T01:24:25;8.27;;;6.05;;
34497;SDS011;20744;50.938;7.286;2023-06-10T01:26:53;8.15;;;5.88;;
34497;SDS011;20744;50.938;7.286;2023-06-10T01:29:22;8.18;;;5.95;;
34497;SDS011;20744;50.938;7.286;2023-06-10T01:31:52;8.15;;;6.03;;
34497;SDS011;20744;50.938;7.286;2023-06-10T01:34:21;9.15;;;5.80;;
34497;SDS011;20744;50.938;7.286;2023-06-10T01:36:50;7.05;;;6.10;;
34497;SDS011;20744;50.938;7.286;2023-06-10T01:39:20;9.85;;;6.43;;
34497;SDS011;20744;50.938;7.286;2023-06-10T01:41:49;11.20;;;5.90;;
34497;SDS011;20744;50.938;7.286;2023-06-10T01:44:17;10.60;;;6.50;;
34497;SDS011;20744;50.938;7.286;2023-06-10T01:46:45;8.60;;;6.40;;
34497;SDS011;20744;50.938;7.286;2023-06-10T01:49:12;8.98;;;5.88;;
34497;SDS011;20744;50.938;7.286;2023-06-10T01:51:39;6.95;;;5.90;;
34497;SDS011;20744;50.938;7.286;2023-06-10T01:54:06;10.43;;;6.40;;
34497;SDS011;20744;50.938;7.286;2023-06-10T01:56:35;10.50;;;6.55;;
34497;SDS011;20744;50.938;7.286;2023-06-10T01:59:02;8.00;;;5.80;;
34497;SDS011;20744;50.938;7.286;2023-06-10T02:01:29;12.77;;;5.97;;
34497;SDS011;20744;50.938;7.286;2023-06-10T02:03:57;7.85;;;5.97;;
34497;SDS011;20744;50.938;7.286;2023-06-10T02:06:24;11.40;;;6.30;;
34497;SDS011;20744;50.938;7.286;2023-06-10T02:08:51;10.90;;;6.57;;
34497;SDS011;20744;50.938;7.286;2023-06-10T02:11:18;8.30;;;6.55;;
34497;SDS011;20744;50.938;7.286;2023-06-10T02:13:47;10.10;;;6.47;;
34497;SDS011;20744;50.938;7.286;2023-06-10T02:16:14;12.77;;;6.82;;
34497;SDS011;20744;50.938;7.286;2023-06-10T02:18:42;11.85;;;6.13;;
34497;SDS011;20744;50.938;7.286;2023-06-10T02:21:09;9.68;;;6.82;;
34497;SDS011;20744;50.938;7.286;2023-06-10T02:23:36;7.25;;;6.07;;
34497;SDS011;20744;50.938;7.286;2023-06-10T02:26:03;11.10;;;6.60;;
34497;SDS011;20744;50.938;7.286;2023-06-10T02:28:30;9.73;;;6.60;;
34497;SDS011;20744;50.938;7.286;2023-06-10T02:30:59;9.07;;;6.20;;
34497;SDS011;20744;50.938;7.286;2023-06-10T02:33:26;10.13;;;6.68;;
34497;SDS011;20744;50.938;7.286;2023-06-10T02:35:54;7.15;;;5.90;;
34497;SDS011;20744;50.938;7.286;2023-06-10T02:38:21;9.90;;;6.10;;
34497;SDS011;20744;50.938;7.286;2023-06-10T02:40:48;14.77;;;6.65;;
34497;SDS011;20744;50.938;7.286;2023-06-10T02:43:16;9.50;;;6.03;;
34497;SDS011;20744;50.938;7.286;2023-06-10T02:45:43;11.15;;;6.22;;
34497;SDS011;20744;50.938;7.286;2023-06-10T02:48:11;9.25;;;6.15;;
34497;SDS011;20744;50.938;7.286;2023-06-10T02:50:39;12.18;;;6.43;;
34497;SDS011;20744;50.938;7.286;2023-06-10T02:53:06;8.82;;;6.35;;
34497;SDS011;20744;50.938;7.286;2023-06-10T02:55:33;10.48;;;6.28;;
34497;SDS011;20744;50.938;7.286;2023-06-10T02:58:00;7.60;;;6.10;;
34497;SDS011;20744;50.938;7.286;2023-06-10T03:00:28;10.02;;;5.68;;
34497;SDS011;20744;50.938;7.286;2023-06-10T03:02:55;7.63;;;5.40;;
34497;SDS011;20744;50.938;7.286;2023-06-10T03:05:24;8.23;;;6.07;;
34497;SDS011;20744;50.938;7.286;2023-06-10T03:07:51;11.02;;;6.35;;
34497;SDS011;20744;50.938;7.286;2023-06-10T03:10:19;7.57;;;6.07;;
34497;SDS011;20744;50.938;7.286;2023-06-10T03:12:46;7.93;;;6.10;;
34497;SDS011;20744;50.938;7.286;2023-06-10T03:15:13;8.13;;;6.32;;
34497;SDS011;20744;50.938;7.286;2023-06-10T03:17:41;11.60;;;6.50;;
34497;SDS011;20744;50.938;7.286;2023-06-10T03:20:08;14.35;;;6.22;;
34497;SDS011;20744;50.938;7.286;2023-06-10T03:22:37;10.45;;;6.07;;
34497;SDS011;20744;50.938;7.286;2023-06-10T03:25:05;9.65;;;6.30;;
34497;SDS011;20744;50.938;7.286;2023-06-10T03:27:33;8.20;;;5.65;;
34497;SDS011;20744;50.938;7.286;2023-06-10T03:30:00;8.40;;;5.97;;
34497;SDS011;20744;50.938;7.286;2023-06-10T03:32:28;12.50;;;6.50;;
34497;SDS011;20744;50.938;7.286;2023-06-10T03:34:55;11.27;;;6.45;;
34497;SDS011;20744;50.938;7.286;2023-06-10T03:37:23;13.07;;;5.90;;
34497;SDS011;20744;50.938;7.286;2023-06-10T03:39:51;9.23;;;5.45;;
34497;SDS011;20744;50.938;7.286;2023-06-10T03:42:18;9.48;;;6.20;;
34497;SDS011;20744;50.938;7.286;2023-06-10T03:44:46;8.35;;;5.32;;
34497;SDS011;20744;50.938;7.286;2023-06-10T03:47:13;9.13;;;5.78;;
34497;SDS011;20744;50.938;7.286;2023-06-10T03:49:41;6.07;;;5.28;;
34497;SDS011;20744;50.938;7.286;2023-06-10T03:52:08;7.88;;;5.72;;
34497;SDS011;20744;50.938;7.286;2023-06-10T03:54:35;7.95;;;5.88;;
34497;SDS011;20744;50.938;7.286;2023-06-10T03:57:04;8.70;;;5.65;;
34497;SDS011;20744;50.938;7.286;2023-06-10T03:59:31;7.30;;;5.95;;
34497;SDS011;20744;50.938;7.286;2023-06-10T04:01:59;8.20;;;5.97;;
34497;SDS011;20744;50.938;7.286;2023-06-10T04:04:26;10.27;;;6.20;;
34497;SDS011;20744;50.938;7.286;2023-06-10T04:06:55;9.38;;;5.68;;
34497;SDS011;20744;50.938;7.286;2023-06-10T04:09:22;8.05;;;5.55;;
34497;SDS011;20744;50.938;7.286;2023-06-10T04:11:49;11.52;;;5.80;;
34497;SDS011;20744;50.938;7.286;2023-06-10T04:14:18;10.27;;;5.75;;
34497;SDS011;20744;50.938;7.286;2023-06-10T04:16:45;9.45;;;6.10;;
34497;SDS011;20744;50.938;7.286;2023-06-10T04:19:12;9.18;;;5.75;;
34497;SDS011;20744;50.938;7.286;2023-06-10T04:21:40;7.85;;;5.40;;
34497;SDS011;20744;50.938;7.286;2023-06-10T04:24:07;7.47;;;5.20;;
34497;SDS011;20744;50.938;7.286;2023-06-10T04:26:34;8.10;;;5.80;;
34497;SDS011;20744;50.938;7.286;2023-06-10T04:29:02;8.90;;;5.80;;
34497;SDS011;20744;50.938;7.286;2023-06-10T04:31:30;9.88;;;5.75;;
34497;SDS011;20744;50.938;7.286;2023-06-10T04:33:57;11.73;;;5.65;;
34497;SDS011;20744;50.938;7.286;2023-06-10T04:36:25;9.23;;;5.60;;
34497;SDS011;20744;50.938;7.286;2023-06-10T04:38:54;7.47;;;5.15;;
34497;SDS011;20744;50.938;7.286;2023-06-10T04:41:21;6.47;;;5.32;;
34497;SDS011;20744;50.938;7.286;2023-06-10T04:43:48;6.38;;;5.03;;
34497;SDS011;20744;50.938;7.286;2023-06-10T04:46:16;5.57;;;4.85;;
34497;SDS011;20744;50.938;7.286;2023-06-10T04:48:45;7.57;;;6.18;;
34497;SDS011;20744;50.938;7.286;2023-06-10T04:51:13;8.77;;;5.38;;
34497;SDS011;20744;50.938;7.286;2023-06-10T04:53:40;8.95;;;5.60;;
34497;SDS011;20744;50.938;7.286;2023-06-10T04:56:07;8.07;;;5.38;;
34497;SDS011;20744;50.938;7.286;2023-06-10T04:58:34;7.65;;;4.90;;
34497;SDS011;20744;50.938;7.286;2023-06-10T05:01:01;9.10;;;5.40;;
34497;SDS011;20744;50.938;7.286;2023-06-10T05:03:29;7.20;;;5.00;;
34497;SDS011;20744;50.938;7.286;2023-06-10T05:05:57;7.72;;;5.05;;
34497;SDS011;20744;50.938;7.286;2023-06-10T05:08:24;9.18;;;4.97;;
34497;SDS011;20744;50.938;7.286;2023-06-10T05:10:52;9.85;;;5.57;;
34497;SDS011;20744;50.938;7.286;2023-06-10T05:13:19;11.35;;;5.95;;
34497;SDS011;20744;50.938;7.286;2023-06-10T05:15:46;8.93;;;5.68;;
34497;SDS011;20744;50.938;7.286;2023-06-10T05:18:13;10.82;;;5.55;;
34497;SDS011;20744;50.938;7.286;2023-06-10T05:20:40;7.15;;;5.38;;
34497;SDS011;20744;50.938;7.286;2023-06-10T05:23:09;6.40;;;4.70;;
34497;SDS011;20744;50.938;7.286;2023-06-10T05:25:36;7.55;;;5.22;;
34497;SDS011;20744;50.938;7.286;2023-06-10T05:28:04;10.35;;;5.05;;
34497;SDS011;20744;50.938;7.286;2023-06-10T05:30:34;9.30;;;5.13;;
34497;SDS011;20744;50.938;7.286;2023-06-10T05:33:02;12.02;;;4.60;;
34497;SDS011;20744;50.938;7.286;2023-06-10T05:35:29;7.78;;;5.10;;
34497;SDS011;20744;50.938;7.286;2023-06-10T05:37:57;7.30;;;4.93;;
34497;SDS011;20744;50.938;7.286;2023-06-10T05:40:25;7.68;;;5.00;;
34497;SDS011;20744;50.938;7.286;2023-06-10T05:42:52;9.15;;;4.78;;
34497;SDS011;20744;50.938;7.286;2023-06-10T05:45:20;7.72;;;4.80;;
34497;SDS011;20744;50.938;7.286;2023-06-10T05:47:47;7.43;;;5.35;;
34497;SDS011;20744;50.938;7.286;2023-06-10T05:50:14;9.77;;;4.80;;
34497;SDS011;20744;50.938;7.286;2023-06-10T05:52:42;6.13;;;4.70;;
34497;SDS011;20744;50.938;7.286;2023-06-10T05:55:09;11.57;;;4.93;;
34497;SDS011;20744;50.938;7.286;2023-06-10T05:57:38;5.55;;;4.43;;
34497;SDS011;20744;50.938;7.286;2023-06-10T06:00:05;6.13;;;4.57;;
34497;SDS011;20744;50.938;7.286;2023-06-10T06:02:33;6.88;;;4.55;;
34497;SDS011;20744;50.938;7.286;2023-06-10T06:05:00;5.85;;;4.65;;
34497;SDS011;20744;50.938;7.286;2023-06-10T06:07:27;6.43;;;5.43;;
34497;SDS011;20744;50.938;7.286;2023-06-10T06:09:54;8.15;;;5.32;;
34497;SDS011;20744;50.938;7.286;2023-06-10T06:12:22;11.15;;;5.13;;
34497;SDS011;20744;50.938;7.286;2023-06-10T06:14:50;6.75;;;5.28;;
34497;SDS011;20744;50.938;7.286;2023-06-10T06:17:17;10.38;;;5.20;;
34497;SDS011;20744;50.938;7.286;2023-06-10T06:19:45;7.35;;;4.53;;
34497;SDS011;20744;50.938;7.286;2023-06-10T06:22:13;7.80;;;4.95;;
34497;SDS011;20744;50.938;7.286;2023-06-10T06:24:40;9.40;;;4.93;;
34497;SDS011;20744;50.938;7.286;2023-06-10T06:27:07;8.57;;;5.20;;
34497;SDS011;20744;50.938;7.286;2023-06-10T06:29:35;7.80;;;5.35;;
34497;SDS011;20744;50.938;7.286;2023-06-10T06:32:04;6.38;;;5.47;;
34497;SDS011;20744;50.938;7.286;2023-06-10T06:34:31;11.30;;;5.40;;
34497;SDS011;20744;50.938;7.286;2023-06-10T06:36:59;11.57;;;5.25;;
34497;SDS011;20744;50.938;7.286;2023-06-10T06:39:26;6.50;;;4.97;;
34497;SDS011;20744;50.938;7.286;2023-06-10T06:41:53;8.35;;;4.75;;
34497;SDS011;20744;50.938;7.286;2023-06-10T06:44:21;11.00;;;4.35;;
34497;SDS011;20744;50.938;7.286;2023-06-10T06:46:48;8.30;;;4.55;;
34497;SDS011;20744;50.938;7.286;2023-06-10T06:49:16;8.52;;;4.78;;
34497;SDS011;20744;50.938;7.286;2023-06-10T06:51:44;7.35;;;4.50;;
34497;SDS011;20744;50.938;7.286;2023-06-10T06:54:11;5.78;;;4.20;;
34497;SDS011;20744;50.938;7.286;2023-06-10T06:56:38;9.60;;;4.60;;
34497;SDS011;20744;50.938;7.286;2023-06-10T06:59:05;6.35;;;4.05;;
34497;SDS011;20744;50.938;7.286;2023-06-10T07:01:33;6.22;;;4.40;;
34497;SDS011;20744;50.938;7.286;2023-06-10T07:04:00;6.82;;;4.15;;
34497;SDS011;20744;50.938;7.286;2023-06-10T07:06:29;10.30;;;4.07;;
34497;SDS011;20744;50.938;7.286;2023-06-10T07:08:56;8.27;;;4.20;;
34497;SDS011;20744;50.938;7.286;2023-06-10T07:11:23;6.78;;;4.50;;
34497;SDS011;20744;50.938;7.286;2023-06-10T07:13:51;5.45;;;4.40;;
34497;SDS011;20744;50.938;7.286;2023-06-10T07:16:18;5.82;;;4.30;;
34497;SDS011;20744;50.938;7.286;2023-06-10T07:18:46;10.13;;;4.57;;
34497;SDS011;20744;50.938;7.286;2023-06-10T07:21:13;9.13;;;4.32;;
34497;SDS011;20744;50.938;7.286;2023-06-10T07:23:42;10.10;;;5.03;;
34497;SDS011;20744;50.938;7.286;2023-06-10T07:26:10;9.75;;;4.40;;
34497;SDS011;20744;50.938;7.286;2023-06-10T07:28:38;6.90;;;4.47;;
34497;SDS011;20744;50.938;7.286;2023-06-10T07:31:06;10.20;;;4.70;;
34497;SDS011;20744;50.938;7.286;2023-06-10T07:33:33;8.05;;;4.63;;
34497;SDS011;20744;50.938;7.286;2023-06-10T07:36:02;7.50;;;4.53;;
34497;SDS011;20744;50.938;7.286;2023-06-10T07:38:29;6.97;;;4.20;;
34497;SDS011;20744;50.938;7.286;2023-06-10T07:40:57;11.60;;;4.10;;
34497;SDS011;20744;50.938;7.286;2023-06-10T07:43:24;8.75;;;4.28;;
34497;SDS011;20744;50.938;7.286;2023-06-10T07:45:52;13.68;;;4.65;;
34497;SDS011;20744;50.938;7.286;2023-06-10T07:48:19;7.78;;;3.92;;
34497;SDS011;20744;50.938;7.286;2023-06-10T07:50:46;6.70;;;4.10;;
34497;SDS011;20744;50.938;7.286;2023-06-10T07:53:13;6.75;;;4.50;;
34497;SDS011;20744;50.938;7.286;2023-06-10T07:55:41;9.23;;;4.55;;
34497;SDS011;20744;50.938;7.286;2023-06-10T07:58:09;9.50;;;4.05;;
34497;SDS011;20744;50.938;7.286;2023-06-10T08:00:36;5.53;;;4.20;;
34497;SDS011;20744;50.938;7.286;2023-06-10T08:03:04;6.38;;;4.00;;
34497;SDS011;20744;50.938;7.286;2023-06-10T08:05:31;9.70;;;4.15;;
34497;SDS011;20744;50.938;7.286;2023-06-10T08:07:58;8.80;;;4.53;;
34497;SDS011;20744;50.938;7.286;2023-06-10T08:10:25;9.32;;;4.72;;
34497;SDS011;20744;50.938;7.286;2023-06-10T08:12:52;7.15;;;4.35;;
34497;SDS011;20744;50.938;7.286;2023-06-10T08:15:21;8.18;;;4.18;;
34497;SDS011;20744;50.938;7.286;2023-06-10T08:17:48;10.70;;;4.60;;
34497;SDS011;20744;50.938;7.286;2023-06-10T08:20:16;5.43;;;4.25;;
34497;SDS011;20744;50.938;7.286;2023-06-10T08:22:43;6.03;;;4.60;;
34497;SDS011;20744;50.938;7.286;2023-06-10T08:25:10;9.93;;;4.82;;
34497;SDS011;20744;50.938;7.286;2023-06-10T08:27:38;10.70;;;4.13;;
34497;SDS011;20744;50.938;7.286;2023-06-10T08:30:05;6.95;;;4.43;;
34497;SDS011;20744;50.938;7.286;2023-06-10T08:32:34;9.65;;;4.38;;
34497;SDS011;20744;50.938;7.286;2023-06-10T08:35:02;8.20;;;4.13;;
34497;SDS011;20744;50.938;7.286;2023-06-10T08:37:29;8.48;;;4.50;;
34497;SDS011;20744;50.938;7.286;2023-06-10T08:39:56;6.90;;;4.40;;
34497;SDS011;20744;50.938;7.286;2023-06-10T08:42:24;6.53;;;4.20;;
34497;SDS011;20744;50.938;7.286;2023-06-10T08:44:53;10.98;;;4.28;;
34497;SDS011;20744;50.938;7.286;2023-06-10T08:47:22;8.48;;;4.45;;
34497;SDS011;20744;50.938;7.286;2023-06-10T08:49:51;6.40;;;4.20;;
34497;SDS011;20744;50.938;7.286;2023-06-10T08:52:19;8.13;;;4.07;;
34497;SDS011;20744;50.938;7.286;2023-06-10T08:54:48;8.98;;;4.47;;
34497;SDS011;20744;50.938;7.286;2023-06-10T08:57:16;6.75;;;4.28;;
34497;SDS011;20744;50.938;7.286;2023-06-10T08:59:45;8.25;;;4.60;;
34497;SDS011;20744;50.938;7.286;2023-06-10T09:02:13;6.95;;;4.53;;
34497;SDS011;20744;50.938;7.286;2023-06-10T09:04:41;7.00;;;4.28;;
34497;SDS011;20744;50.938;7.286;2023-06-10T09:07:10;9.68;;;4.32;;
34497;SDS011;20744;50.938;7.286;2023-06-10T09:09:39;8.55;;;4.43;;
34497;SDS011;20744;50.938;7.286;2023-06-10T09:12:07;7.13;;;4.25;;
34497;SDS011;20744;50.938;7.286;2023-06-10T09:14:34;5.82;;;4.15;;
34497;SDS011;20744;50.938;7.286;2023-06-10T09:17:01;6.72;;;4.03;;
34497;SDS011;20744;50.938;7.286;2023-06-10T09:19:29;7.97;;;4.80;;
34497;SDS011;20744;50.938;7.286;2023-06-10T09:21:56;9.65;;;4.45;;
34497;SDS011;20744;50.938;7.286;2023-06-10T09:24:25;5.70;;;4.10;;
34497;SDS011;20744;50.938;7.286;2023-06-10T09:26:54;7.15;;;4.18;;
34497;SDS011;20744;50.938;7.286;2023-06-10T09:29:28;10.52;;;4.35;;
34497;SDS011;20744;50.938;7.286;2023-06-10T09:31:55;5.97;;;4.10;;
34497;SDS011;20744;50.938;7.286;2023-06-10T09:34:24;14.05;;;4.28;;
34497;SDS011;20744;50.938;7.286;2023-06-10T09:36:52;6.85;;;4.72;;
34497;SDS011;20744;50.938;7.286;2023-06-10T09:39:20;6.18;;;3.95;;
34497;SDS011;20744;50.938;7.286;2023-06-10T09:41:49;6.18;;;4.45;;
34497;SDS011;20744;50.938;7.286;2023-06-10T09:44:17;8.38;;;4.13;;
34497;SDS011;20744;50.938;7.286;2023-06-10T09:46:44;7.18;;;4.43;;
34497;SDS011;20744;50.938;7.286;2023-06-10T09:49:12;8.43;;;4.28;;
34497;SDS011;20744;50.938;7.286;2023-06-10T09:51:48;9.02;;;4.22;;
34497;SDS011;20744;50.938;7.286;2023-06-10T09:54:16;10.25;;;3.97;;
34497;SDS011;20744;50.938;7.286;2023-06-10T09:56:44;9.98;;;4.32;;
34497;SDS011;20744;50.938;7.286;2023-06-10T09:59:14;10.95;;;4.22;;
34497;SDS011;20744;50.938;7.286;2023-06-10T10:01:42;9.50;;;4.28;;
34497;SDS011;20744;50.938;7.286;2023-06-10T10:04:09;6.68;;;3.97;;
34497;SDS011;20744;50.938;7.286;2023-06-10T10:06:36;7.47;;;4.22;;
34497;SDS011;20744;50.938;7.286;2023-06-10T10:09:03;9.23;;;4.18;;
34497;SDS011;20744;50.938;7.286;2023-06-10T10:11:30;8.10;;;4.30;;
34497;SDS011;20744;50.938;7.286;2023-06-10T10:13:58;8.98;;;4.22;;
34497;SDS011;20744;50.938;7.286;2023-06-10T10:16:28;11.05;;;4.60;;
34497;SDS011;20744;50.938;7.286;2023-06-10T10:18:58;10.93;;;4.28;;
34497;SDS011;20744;50.938;7.286;2023-06-10T10:21:29;8.50;;;4.10;;
34497;SDS011;20744;50.938;7.286;2023-06-10T10:24:01;14.23;;;4.10;;
34497;SDS011;20744;50.938;7.286;2023-06-10T10:26:29;7.22;;;3.53;;
34497;SDS011;20744;50.938;7.286;2023-06-10T10:29:00;10.68;;;4.03;;
34497;SDS011;20744;50.938;7.286;2023-06-10T10:31:32;7.13;;;4.13;;
34497;SDS011;20744;50.938;7.286;2023-06-10T10:34:00;7.40;;;4.25;;
34497;SDS011;20744;50.938;7.286;2023-06-10T10:36:27;6.82;;;4.15;;
34497;SDS011;20744;50.938;7.286;2023-06-10T10:38:55;11.52;;;4.03;;
34497;SDS011;20744;50.938;7.286;2023-06-10T10:41:23;7.00;;;4.30;;
34497;SDS011;20744;50.938;7.286;2023-06-10T10:43:51;9.68;;;3.90;;
34497;SDS011;20744;50.938;7.286;2023-06-10T10:46:19;9.27;;;3.90;;
34497;SDS011;20744;50.938;7.286;2023-06-10T10:48:51;10.65;;;3.70;;
34497;SDS011;20744;50.938;7.286;2023-06-10T10:51:19;6.05;;;3.78;;
34497;SDS011;20744;50.938;7.286;2023-06-10T10:56:28;11.18;;;4.10;;
34497;SDS011;20744;50.938;7.286;2023-06-10T10:59:01;5.70;;;3.58;;
34497;SDS011;20744;50.938;7.286;2023-06-10T11:01:39;5.70;;;3.88;;
34497;SDS011;20744;50.938;7.286;2023-06-10T11:04:08;6.50;;;4.05;;
34497;SDS011;20744;50.938;7.286;2023-06-10T11:06:35;5.03;;;3.40;;
34497;SDS011;20744;50.938;7.286;2023-06-10T11:09:24;4.97;;;4.00;;
34497;SDS011;20744;50.938;7.286;2023-06-10T11:11:52;6.53;;;3.92;;
34497;SDS011;20744;50.938;7.286;2023-06-10T11:14:25;5.88;;;4.03;;
34497;SDS011;20744;50.938;7.286;2023-06-10T11:16:56;8.48;;;4.18;;
34497;SDS011;20744;50.938;7.286;2023-06-10T11:19:33;8.23;;;3.90;;
34497;SDS011;20744;50.938;7.286;2023-06-10T11:22:01;5.78;;;3.67;;
34497;SDS011;20744;50.938;7.286;2023-06-10T11:24:29;5.45;;;3.88;;
34497;SDS011;20744;50.938;7.286;2023-06-10T11:29:39;5.13;;;3.83;;
34497;SDS011;20744;50.938;7.286;2023-06-10T11:32:06;8.63;;;4.00;;
34497;SDS011;20744;50.938;7.286;2023-06-10T11:34:34;8.98;;;4.15;;
34497;SDS011;20744;50.938;7.286;2023-06-10T11:37:02;9.90;;;4.20;;
34497;SDS011;20744;50.938;7.286;2023-06-10T11:39:29;8.07;;;4.18;;
34497;SDS011;20744;50.938;7.286;2023-06-10T11:41:56;10.77;;;4.30;;
34497;SDS011;20744;50.938;7.286;2023-06-10T11:44:27;7.72;;;4.20;;
34497;SDS011;20744;50.938;7.286;2023-06-10T11:46:55;9.75;;;4.03;;
34497;SDS011;20744;50.938;7.286;2023-06-10T11:49:23;9.15;;;3.83;;
34497;SDS011;20744;50.938;7.286;2023-06-10T11:51:51;8.13;;;4.18;;
34497;SDS011;20744;50.938;7.286;2023-06-10T11:54:19;5.88;;;4.15;;
34497;SDS011;20744;50.938;7.286;2023-06-10T11:56:47;7.45;;;3.80;;
34497;SDS011;20744;50.938;7.286;2023-06-10T11:59:14;5.68;;;4.20;;
34497;SDS011;20744;50.938;7.286;2023-06-10T12:01:42;6.35;;;3.53;;
34497;SDS011;20744;50.938;7.286;2023-06-10T12:04:10;6.93;;;4.10;;
34497;SDS011;20744;50.938;7.286;2023-06-10T12:06:38;5.93;;;3.60;;
34497;SDS011;20744;50.938;7.286;2023-06-10T12:09:06;5.90;;;4.25;;
34497;SDS011;20744;50.938;7.286;2023-06-10T12:11:34;8.07;;;4.03;;
34497;SDS011;20744;50.938;7.286;2023-06-10T12:14:01;8.45;;;3.65;;
34497;SDS011;20744;50.938;7.286;2023-06-10T12:16:28;7.22;;;3.70;;
34497;SDS011;20744;50.938;7.286;2023-06-10T12:19:00;7.55;;;3.78;;
34497;SDS011;20744;50.938;7.286;2023-06-10T12:21:28;8.57;;;4.03;;
34497;SDS011;20744;50.938;7.286;2023-06-10T12:23:59;8.30;;;3.42;;
34497;SDS011;20744;50.938;7.286;2023-06-10T12:26:35;7.22;;;3.50;;
34497;SDS011;20744;50.938;7.286;2023-06-10T12:29:02;5.15;;;3.65;;
34497;SDS011;20744;50.938;7.286;2023-06-10T12:31:51;6.88;;;3.50;;
34497;SDS011;20744;50.938;7.286;2023-06-10T12:34:19;5.43;;;3.85;;
34497;SDS011;20744;50.938;7.286;2023-06-10T12:36:47;8.32;;;3.50;;
34497;SDS011;20744;50.938;7.286;2023-06-10T12:39:14;10.75;;;3.75;;
34497;SDS011;20744;50.938;7.286;2023-06-10T12:41:48;5.88;;;3.28;;
34497;SDS011;20744;50.938;7.286;2023-06-10T12:44:15;9.75;;;3.67;;
34497;SDS011;20744;50.938;7.286;2023-06-10T12:46:42;6.50;;;3.45;;
34497;SDS011;20744;50.938;7.286;2023-06-10T12:49:18;5.13;;;3.55;;
34497;SDS011;20744;50.938;7.286;2023-06-10T12:51:46;4.18;;;3.40;;
34497;SDS011;20744;50.938;7.286;2023-06-10T12:54:14;7.65;;;3.30;;
34497;SDS011;20744;50.938;7.286;2023-06-10T12:56:41;6.15;;;3.33;;
34497;SDS011;20744;50.938;7.286;2023-06-10T12:59:09;9.02;;;3.20;;
34497;SDS011;20744;50.938;7.286;2023-06-10T13:01:37;5.07;;;3.30;;
34497;SDS011;20744;50.938;7.286;2023-06-10T13:04:05;6.22;;;3.38;;
34497;SDS011;20744;50.938;7.286;2023-06-10T13:06:32;3.97;;;3.40;;
34497;SDS011;20744;50.938;7.286;2023-06-10T13:09:02;4.60;;;3.10;;
34497;SDS011;20744;50.938;7.286;2023-06-10T13:11:31;6.35;;;3.47;;
34497;SDS011;20744;50.938;7.286;2023-06-10T13:13:59;4.20;;;3.00;;
34497;SDS011;20744;50.938;7.286;2023-06-10T13:16:28;9.20;;;3.35;;
34497;SDS011;20744;50.938;7.286;2023-06-10T13:18:55;6.88;;;3.38;;
34497;SDS011;20744;50.938;7.286;2023-06-10T13:21:22;8.15;;;3.35;;
34497;SDS011;20744;50.938;7.286;2023-06-10T13:23:50;8.10;;;3.25;;
34497;SDS011;20744;50.938;7.286;2023-06-10T13:26:17;4.97;;;3.28;;
34497;SDS011;20744;50.938;7.286;2023-06-10T13:28:44;6.63;;;3.47;;
34497;SDS011;20744;50.938;7.286;2023-06-10T13:31:11;9.10;;;3.78;;
34497;SDS011;20744;50.938;7.286;2023-06-10T13:33:40;7.45;;;3.55;;
34497;SDS011;20744;50.938;7.286;2023-06-10T13:36:08;11.95;;;3.42;;
34497;SDS011;20744;50.938;7.286;2023-06-10T13:38:37;6.18;;;3.10;;
34497;SDS011;20744;50.938;7.286;2023-06-10T13:41:04;6.53;;;2.90;;
34497;SDS011;20744;50.938;7.286;2023-06-10T13:43:32;12.70;;;3.53;;
34497;SDS011;20744;50.938;7.286;2023-06-10T13:45:59;9.15;;;3.60;;
34497;SDS011;20744;50.938;7.286;2023-06-10T13:48:26;7.90;;;3.40;;
34497;SDS011;20744;50.938;7.286;2023-06-10T13:50:55;10.23;;;3.65;;
34497;SDS011;20744;50.938;7.286;2023-06-10T13:53:22;4.82;;;3.13;;
34497;SDS011;20744;50.938;7.286;2023-06-10T13:55:49;7.75;;;3.58;;
34497;SDS011;20744;50.938;7.286;2023-06-10T13:58:17;7.05;;;3.67;;
34497;SDS011;20744;50.938;7.286;2023-06-10T14:00:44;8.40;;;3.65;;
34497;SDS011;20744;50.938;7.286;2023-06-10T14:03:12;6.93;;;3.67;;
34497;SDS011;20744;50.938;7.286;2023-06-10T14:05:39;8.48;;;3.58;;
34497;SDS011;20744;50.938;7.286;2023-06-10T14:08:08;4.85;;;3.22;;
34497;SDS011;20744;50.938;7.286;2023-06-10T14:10:35;4.90;;;3.00;;
34497;SDS011;20744;50.938;7.286;2023-06-10T14:13:02;5.68;;;2.90;;
34497;SDS011;20744;50.938;7.286;2023-06-10T14:15:30;9.70;;;3.35;;
34497;SDS011;20744;50.938;7.286;2023-06-10T14:17:57;6.22;;;3.38;;
34497;SDS011;20744;50.938;7.286;2023-06-10T14:20:24;6.47;;;3.00;;
34497;SDS011;20744;50.938;7.286;2023-06-10T14:22:56;7.05;;;3.10;;
34497;SDS011;20744;50.938;7.286;2023-06-10T14:25:24;7.97;;;3.40;;
34497;SDS011;20744;50.938;7.286;2023-06-10T14:27:52;7.22;;;3.33;;
34497;SDS011;20744;50.938;7.286;2023-06-10T14:30:19;10.00;;;3.42;;
34497;SDS011;20744;50.938;7.286;2023-06-10T14:32:46;4.20;;;3.15;;
34497;SDS011;20744;50.938;7.286;2023-06-10T14:35:13;6.03;;;2.97;;
34497;SDS011;20744;50.938;7.286;2023-06-10T14:37:40;3.83;;;2.72;;
34497;SDS011;20744;50.938;7.286;2023-06-10T14:40:08;7.03;;;2.92;;
34497;SDS011;20744;50.938;7.286;2023-06-10T14:42:37;5.80;;;3.53;;
34497;SDS011;20744;50.938;7.286;2023-06-10T14:45:05;8.73;;;3.40;;
34497;SDS011;20744;50.938;7.286;2023-06-10T14:47:32;8.73;;;3.13;;
34497;SDS011;20744;50.938;7.286;2023-06-10T14:49:59;8.20;;;2.90;;
34497;SDS011;20744;50.938;7.286;2023-06-10T14:52:26;6.68;;;3.40;;
34497;SDS011;20744;50.938;7.286;2023-06-10T14:54:53;11.52;;;3.45;;